createdAt,value
2022-08-24T00:00:07.345Z,11.93
2022-08-24T00:03:13.469Z,11.23
2022-08-24T00:06:20.389Z,11.48
2022-08-24T00:09:28.173Z,11.45
2022-08-24T00:12:33.464Z,11.27
2022-08-24T00:15:38.537Z,11.35
2022-08-24T00:18:44.862Z,10.90
2022-08-24T00:21:50.275Z,11.15
2022-08-24T00:24:57.927Z,11.60
2022-08-24T00:28:03.372Z,10.13
2022-08-24T00:31:08.886Z,11.00
2022-08-24T00:34:14.294Z,11.15
2022-08-24T00:37:19.667Z,10.75
2022-08-24T00:40:28.977Z,11.40
2022-08-24T00:43:35.197Z,10.88
2022-08-24T00:46:44.791Z,11.13
2022-08-24T00:49:54.897Z,11.40
2022-08-24T00:53:01.030Z,11.27
2022-08-24T00:56:12.069Z,11.70
2022-08-24T00:59:18.461Z,11.07
2022-08-24T01:02:25.196Z,11.68
2022-08-24T01:05:30.991Z,11.32
2022-08-24T01:08:35.957Z,11.20
2022-08-24T01:11:43.946Z,11.45
2022-08-24T01:14:49.479Z,11.00
2022-08-24T01:18:06.871Z,10.10
2022-08-24T01:21:14.630Z,9.95
2022-08-24T01:24:22.562Z,10.82
2022-08-24T01:27:28.350Z,11.10
2022-08-24T01:30:36.014Z,10.07
2022-08-24T01:36:47.956Z,9.85
2022-08-24T01:39:59.185Z,10.18
2022-08-24T01:43:06.496Z,11.02
2022-08-24T01:46:12.090Z,10.32
2022-08-24T01:49:17.634Z,10.48
2022-08-24T01:52:25.793Z,10.32
2022-08-24T01:55:33.647Z,10.32
2022-08-24T01:58:38.986Z,10.45
2022-08-24T02:01:46.856Z,10.65
2022-08-24T02:04:51.926Z,11.25
2022-08-24T02:07:58.486Z,10.60
2022-08-24T02:11:06.726Z,11.48
2022-08-24T02:14:13.452Z,11.18
2022-08-24T02:17:20.424Z,10.83
2022-08-24T02:20:26.550Z,12.68
2022-08-24T02:23:32.082Z,13.30
2022-08-24T02:26:40.413Z,13.00
2022-08-24T02:29:46.626Z,13.05
2022-08-24T02:32:52.105Z,14.00
2022-08-24T02:35:57.875Z,14.43
2022-08-24T02:39:02.875Z,15.57
2022-08-24T02:42:12.042Z,14.90
2022-08-24T02:45:17.412Z,14.38
2022-08-24T02:48:23.493Z,14.82
2022-08-24T02:51:31.076Z,15.20
2022-08-24T02:54:47.446Z,16.00
2022-08-24T02:57:55.760Z,15.57
2022-08-24T03:04:05.986Z,15.55
2022-08-24T03:07:11.037Z,15.18
2022-08-24T03:10:16.113Z,15.85
2022-08-24T03:13:23.752Z,15.38
2022-08-24T03:16:29.452Z,16.58
2022-08-24T03:19:34.726Z,16.20
2022-08-24T03:22:40.194Z,16.02
2022-08-24T03:25:45.328Z,17.48
2022-08-24T03:28:53.637Z,18.02
2022-08-24T03:31:58.856Z,17.63
2022-08-24T03:35:05.135Z,16.63
2022-08-24T03:38:10.407Z,16.77
2022-08-24T03:41:16.159Z,18.38
2022-08-24T03:44:26.084Z,19.13
2022-08-24T03:47:32.377Z,18.23
2022-08-24T03:50:37.807Z,18.25
2022-08-24T03:53:43.609Z,19.27
2022-08-24T03:56:49.807Z,19.40
2022-08-24T03:59:57.796Z,19.42
2022-08-24T04:03:03.259Z,20.80
2022-08-24T04:06:09.443Z,20.30
2022-08-24T04:09:17.444Z,20.15
2022-08-24T04:12:25.363Z,19.88
2022-08-24T04:15:33.516Z,19.67
2022-08-24T04:18:40.831Z,20.23
2022-08-24T04:21:47.563Z,19.58
2022-08-24T04:24:54.954Z,21.17
2022-08-24T04:28:00.134Z,19.75
2022-08-24T04:31:09.253Z,19.15
2022-08-24T04:34:20.502Z,19.92
2022-08-24T04:37:29.129Z,19.77
2022-08-24T04:40:35.348Z,19.10
2022-08-24T04:43:43.321Z,19.75
2022-08-24T04:46:51.131Z,19.23
2022-08-24T04:49:57.954Z,18.70
2022-08-24T04:53:05.725Z,15.95
2022-08-24T04:56:14.625Z,15.15
2022-08-24T04:59:19.811Z,12.45
2022-08-24T05:02:27.867Z,12.77
2022-08-24T05:05:34.978Z,11.35
2022-08-24T05:08:40.475Z,11.75
2022-08-24T05:11:49.889Z,11.43
2022-08-24T05:15:00.633Z,12.00
2022-08-24T05:18:12.150Z,11.35
2022-08-24T05:21:18.757Z,11.65
2022-08-24T05:24:24.753Z,11.27
2022-08-24T05:27:29.941Z,10.85
2022-08-24T05:30:41.964Z,11.73
2022-08-24T05:33:50.866Z,10.48
2022-08-24T05:36:56.582Z,9.40
2022-08-24T05:40:17.461Z,9.95
2022-08-24T05:43:27.173Z,9.65
2022-08-24T05:46:34.233Z,10.70
2022-08-24T05:49:42.282Z,10.15
2022-08-24T05:52:48.997Z,10.38
2022-08-24T05:55:54.902Z,10.02
2022-08-24T05:59:01.102Z,10.45
2022-08-24T06:02:06.703Z,9.50
2022-08-24T06:05:14.835Z,9.63
2022-08-24T06:08:21.087Z,9.23
2022-08-24T06:11:30.313Z,9.80
2022-08-24T06:14:37.611Z,9.40
2022-08-24T06:17:44.762Z,9.50
2022-08-24T06:20:52.769Z,9.10
2022-08-24T06:24:03.726Z,8.45
2022-08-24T06:27:21.735Z,8.02
2022-08-24T06:30:30.181Z,8.18
2022-08-24T06:33:36.030Z,8.60
2022-08-24T06:36:43.923Z,8.65
2022-08-24T06:39:55.082Z,9.15
2022-08-24T06:43:04.831Z,8.57
2022-08-24T06:46:45.599Z,8.63
2022-08-24T06:49:51.337Z,8.98
2022-08-24T06:52:59.120Z,8.48
2022-08-24T06:56:04.848Z,9.55
2022-08-24T06:59:11.802Z,8.25
2022-08-24T07:02:19.182Z,8.75
2022-08-24T07:08:52.774Z,9.30
2022-08-24T07:15:02.688Z,7.07
2022-08-24T07:18:10.291Z,6.68
2022-08-24T07:21:20.079Z,7.63
2022-08-24T07:24:29.057Z,6.10
2022-08-24T07:27:36.173Z,6.88
2022-08-24T07:30:41.745Z,6.43
2022-08-24T07:33:47.281Z,6.07
2022-08-24T07:36:52.622Z,6.65
2022-08-24T07:40:00.596Z,6.00
2022-08-24T07:43:08.333Z,6.57
2022-08-24T07:46:13.807Z,5.72
2022-08-24T07:49:33.055Z,6.03
2022-08-24T07:52:43.872Z,5.45
2022-08-24T07:55:58.495Z,6.07
2022-08-24T07:59:03.990Z,6.13
2022-08-24T08:02:09.885Z,5.38
2022-08-24T08:05:15.296Z,6.10
2022-08-24T08:08:25.346Z,5.38
2022-08-24T08:11:33.403Z,4.97
2022-08-24T08:14:39.232Z,4.72
2022-08-24T08:17:44.544Z,3.92
2022-08-24T08:20:50.303Z,4.78
2022-08-24T08:24:07.853Z,3.95
2022-08-24T08:27:18.161Z,3.85
2022-08-24T08:33:28.332Z,4.25
2022-08-24T08:36:34.331Z,4.28
2022-08-24T08:39:40.849Z,3.70
2022-08-24T08:43:09.679Z,3.50
2022-08-24T08:46:22.451Z,3.40
2022-08-24T08:50:06.043Z,3.65
2022-08-24T08:53:32.067Z,3.60
2022-08-24T08:56:41.157Z,3.25
2022-08-24T08:59:54.976Z,3.45
2022-08-24T09:03:11.758Z,2.50
2022-08-24T09:06:35.351Z,2.60
2022-08-24T09:09:57.849Z,3.03
2022-08-24T09:13:20.177Z,3.20
2022-08-24T09:16:43.741Z,2.70
2022-08-24T09:19:59.045Z,2.75
2022-08-24T09:23:09.022Z,3.53
2022-08-24T09:26:21.895Z,3.45
2022-08-24T09:29:38.410Z,3.85
2022-08-24T09:33:00.457Z,3.63
2022-08-24T09:39:14.941Z,3.40
2022-08-24T09:42:35.462Z,3.33
2022-08-24T09:45:58.871Z,3.47
2022-08-24T09:49:19.029Z,2.45
2022-08-24T09:52:36.883Z,3.25
2022-08-24T09:58:54.791Z,3.35
2022-08-24T10:02:09.871Z,3.90
2022-08-24T10:05:21.897Z,3.85
2022-08-24T10:08:37.462Z,3.05
2022-08-24T10:11:47.450Z,3.10
2022-08-24T10:14:57.320Z,3.65
2022-08-24T10:18:10.957Z,3.15
2022-08-24T10:21:20.205Z,2.90
2022-08-24T10:24:36.366Z,3.80
2022-08-24T10:27:52.062Z,2.80
2022-08-24T10:31:06.886Z,3.00
2022-08-24T10:34:23.295Z,3.27
2022-08-24T10:37:44.090Z,2.90
2022-08-24T10:40:57.139Z,2.92
2022-08-24T10:44:12.838Z,2.65
2022-08-24T10:47:27.094Z,2.47
2022-08-24T10:50:38.883Z,2.83
2022-08-24T10:53:50.958Z,3.67
2022-08-24T10:57:01.800Z,3.35
2022-08-24T11:00:09.934Z,2.97
2022-08-24T11:03:18.718Z,3.80
2022-08-24T11:06:25.391Z,2.75
2022-08-24T11:09:45.479Z,3.25
2022-08-24T11:12:53.237Z,3.08
2022-08-24T11:16:00.939Z,3.45
2022-08-24T11:19:07.660Z,3.20
2022-08-24T11:22:28.185Z,2.85
2022-08-24T11:25:35.148Z,2.53
2022-08-24T11:28:44.591Z,2.65
2022-08-24T11:31:52.944Z,3.13
2022-08-24T11:34:58.271Z,2.80
2022-08-24T11:38:09.988Z,2.75
2022-08-24T11:41:19.477Z,3.13
2022-08-24T11:44:34.627Z,3.45
2022-08-24T11:47:57.609Z,3.30
2022-08-24T11:51:06.578Z,3.72
2022-08-24T11:54:19.749Z,3.40
2022-08-24T11:57:29.402Z,3.17
2022-08-24T12:00:42.552Z,3.58
2022-08-24T12:03:53.202Z,3.10
2022-08-24T12:07:02.150Z,3.00
2022-08-24T12:10:18.879Z,3.30
2022-08-24T12:13:30.546Z,3.22
2022-08-24T12:16:45.193Z,3.55
2022-08-24T12:19:52.781Z,3.33
2022-08-24T12:23:00.354Z,2.90
2022-08-24T12:26:07.834Z,3.63
2022-08-24T12:29:15.759Z,3.22
2022-08-24T12:32:26.014Z,2.80
2022-08-24T12:35:33.096Z,3.20
2022-08-24T12:38:41.692Z,3.08
2022-08-24T12:41:51.763Z,3.53
2022-08-24T12:44:58.505Z,3.13
2022-08-24T12:48:13.370Z,3.08
2022-08-24T12:51:22.550Z,3.10
2022-08-24T12:54:36.449Z,3.70
2022-08-24T12:57:54.018Z,4.40
2022-08-24T13:01:05.315Z,3.22
2022-08-24T13:04:19.968Z,3.00
2022-08-24T13:07:30.667Z,3.55
2022-08-24T13:10:44.424Z,3.15
2022-08-24T13:13:50.480Z,3.13
2022-08-24T13:17:10.677Z,2.97
2022-08-24T13:20:23.740Z,3.30
2022-08-24T13:23:29.696Z,2.65
2022-08-24T13:26:36.131Z,3.20
2022-08-24T13:29:42.927Z,3.55
2022-08-24T13:32:49.533Z,3.30
2022-08-24T13:36:02.565Z,3.30
2022-08-24T13:39:12.228Z,2.75
2022-08-24T13:42:34.842Z,3.13
2022-08-24T13:45:44.505Z,3.50
2022-08-24T13:48:56.383Z,3.13
2022-08-24T13:52:13.691Z,2.92
2022-08-24T13:55:30.267Z,2.95
2022-08-24T13:58:43.255Z,4.28
2022-08-24T14:02:02.195Z,4.13
2022-08-24T14:05:12.477Z,4.38
2022-08-24T14:08:27.884Z,5.32
2022-08-24T14:11:40.041Z,3.60
2022-08-24T14:14:57.306Z,3.33
2022-08-24T14:18:08.314Z,3.40
2022-08-24T14:21:17.976Z,3.65
2022-08-24T14:24:30.169Z,3.50
2022-08-24T14:27:40.460Z,3.85
2022-08-24T14:30:47.481Z,3.22
2022-08-24T14:34:16.320Z,2.72
2022-08-24T14:37:23.688Z,2.85
2022-08-24T14:40:37.372Z,3.28
2022-08-24T14:43:53.362Z,3.58
2022-08-24T14:47:05.554Z,4.97
2022-08-24T14:50:13.327Z,4.30
2022-08-24T14:53:28.743Z,5.75
2022-08-24T14:56:50.361Z,2.92
2022-08-24T15:00:00.471Z,2.75
2022-08-24T15:03:17.911Z,3.13
2022-08-24T15:06:27.571Z,2.72
2022-08-24T15:09:35.664Z,3.10
2022-08-24T15:12:46.669Z,3.15
2022-08-24T15:15:55.530Z,3.30
2022-08-24T15:19:05.690Z,2.50
2022-08-24T15:22:12.754Z,2.92
2022-08-24T15:25:21.803Z,2.70
2022-08-24T15:28:34.303Z,2.38
2022-08-24T15:31:41.801Z,3.47
2022-08-24T15:34:49.113Z,3.42
2022-08-24T15:37:54.419Z,3.47
2022-08-24T15:41:06.516Z,3.40
2022-08-24T15:44:21.603Z,3.30
2022-08-24T15:47:31.806Z,2.78
2022-08-24T15:50:43.055Z,3.22
2022-08-24T15:53:48.444Z,3.38
2022-08-24T15:56:54.584Z,3.75
2022-08-24T16:00:08.753Z,2.97
2022-08-24T16:03:20.542Z,3.33
2022-08-24T16:06:29.364Z,2.63
2022-08-24T16:09:37.916Z,2.80
2022-08-24T16:12:43.075Z,4.93
2022-08-24T16:15:53.800Z,2.53
2022-08-24T16:19:02.270Z,2.90
2022-08-24T16:22:14.638Z,3.85
2022-08-24T16:25:24.338Z,3.50
2022-08-24T16:28:40.176Z,3.88
2022-08-24T16:31:53.036Z,3.25
2022-08-24T16:34:59.108Z,3.83
2022-08-24T16:38:04.461Z,3.97
2022-08-24T16:41:11.156Z,2.88
2022-08-24T16:44:16.404Z,3.30
2022-08-24T16:47:24.452Z,3.80
2022-08-24T16:50:29.746Z,3.40
2022-08-24T16:53:34.881Z,4.07
2022-08-24T16:56:40.356Z,3.80
2022-08-24T16:59:47.268Z,3.75
2022-08-24T17:02:55.388Z,5.90
2022-08-24T17:06:00.622Z,4.47
2022-08-24T17:09:06.270Z,4.60
2022-08-24T17:12:14.264Z,4.75
2022-08-24T17:15:19.407Z,4.43
2022-08-24T17:18:27.699Z,5.25
2022-08-24T17:21:32.706Z,5.15
2022-08-24T17:24:38.251Z,5.25
2022-08-24T17:27:43.251Z,4.68
2022-08-24T17:30:51.313Z,4.78
2022-08-24T17:33:59.989Z,5.78
2022-08-24T17:37:05.646Z,6.63
2022-08-24T17:40:14.643Z,5.20
2022-08-24T17:43:20.284Z,4.95
2022-08-24T17:46:25.667Z,4.80
2022-08-24T17:49:33.932Z,5.18
2022-08-24T17:52:39.269Z,6.90
2022-08-24T17:55:44.709Z,5.13
2022-08-24T17:59:02.371Z,4.95
2022-08-24T18:02:09.341Z,8.07
2022-08-24T18:05:17.341Z,6.25
2022-08-24T18:08:22.763Z,5.82
2022-08-24T18:11:27.920Z,5.60
2022-08-24T18:14:34.754Z,5.47
2022-08-24T18:17:41.900Z,5.95
2022-08-24T18:20:51.187Z,7.27
2022-08-24T18:23:56.489Z,6.57
2022-08-24T18:27:01.978Z,7.13
2022-08-24T18:30:18.363Z,6.32
2022-08-24T18:33:23.491Z,6.90
2022-08-24T18:36:31.330Z,7.05
2022-08-24T18:39:36.679Z,6.78
2022-08-24T18:42:42.654Z,6.68
2022-08-24T18:45:47.752Z,8.50
2022-08-24T18:48:52.930Z,7.70
2022-08-24T18:52:01.539Z,7.43
2022-08-24T18:55:07.393Z,6.93
2022-08-24T18:58:12.752Z,7.03
2022-08-24T19:01:18.051Z,7.20
2022-08-24T19:04:30.238Z,7.10
2022-08-24T19:07:41.812Z,6.90
2022-08-24T19:10:47.137Z,6.60
2022-08-24T19:13:52.216Z,7.15
2022-08-24T19:16:57.655Z,6.68
2022-08-24T19:20:02.855Z,7.40
2022-08-24T19:23:12.422Z,6.85
2022-08-24T19:26:18.776Z,7.28
2022-08-24T19:29:44.971Z,7.80
2022-08-24T19:32:49.269Z,7.88
2022-08-24T19:35:55.111Z,7.70
2022-08-24T19:39:02.999Z,7.90
2022-08-24T19:42:08.626Z,9.15
2022-08-24T19:45:29.833Z,9.27
2022-08-24T19:48:35.547Z,8.48
2022-08-24T19:51:41.336Z,9.43
2022-08-24T19:54:49.800Z,9.60
2022-08-24T19:57:56.842Z,8.80
2022-08-24T20:01:06.978Z,9.23
2022-08-24T20:04:13.001Z,8.75
2022-08-24T20:07:19.484Z,9.02
2022-08-24T20:10:27.667Z,10.35
2022-08-24T20:16:39.408Z,9.30
2022-08-24T20:19:44.972Z,9.43
2022-08-24T20:22:50.031Z,9.88
2022-08-24T20:25:58.132Z,9.27
2022-08-24T20:29:03.926Z,10.10
2022-08-24T20:32:09.626Z,10.77
2022-08-24T20:35:17.482Z,10.15
2022-08-24T20:38:23.297Z,11.07
2022-08-24T20:41:32.134Z,9.82
2022-08-24T20:44:37.376Z,10.35
2022-08-24T20:47:44.875Z,10.35
2022-08-24T20:50:50.150Z,11.65
2022-08-24T20:53:55.472Z,13.27
2022-08-24T20:57:03.669Z,11.80
2022-08-24T21:03:16.250Z,11.10
2022-08-24T21:06:22.103Z,11.80
2022-08-24T21:09:27.523Z,10.45
2022-08-24T21:12:35.360Z,11.00
2022-08-24T21:15:41.690Z,10.60
2022-08-24T21:18:47.076Z,11.38
2022-08-24T21:21:52.985Z,10.48
2022-08-24T21:24:57.925Z,10.73
2022-08-24T21:28:06.136Z,10.52
2022-08-24T21:31:11.675Z,10.88
2022-08-24T21:34:29.313Z,10.63
2022-08-24T21:37:34.333Z,11.32
2022-08-24T21:40:40.726Z,10.30
2022-08-24T21:43:48.446Z,10.82
2022-08-24T21:46:54.350Z,10.90
2022-08-24T21:49:59.379Z,12.35
2022-08-24T21:53:04.728Z,12.75
2022-08-24T21:56:10.343Z,12.00
2022-08-24T21:59:18.565Z,12.13
2022-08-24T22:05:28.998Z,12.18
2022-08-24T22:08:34.564Z,11.45
2022-08-24T22:11:40.026Z,11.95
2022-08-24T22:14:47.885Z,13.18
2022-08-24T22:17:53.617Z,12.48
2022-08-24T22:20:58.810Z,11.15
2022-08-24T22:24:04.034Z,12.52
2022-08-24T22:27:09.031Z,13.68
2022-08-24T22:30:18.313Z,13.07
2022-08-24T22:33:23.425Z,12.48
2022-08-24T22:36:29.731Z,11.27
2022-08-24T22:39:35.425Z,12.90
2022-08-24T22:42:40.918Z,11.45
2022-08-24T22:45:48.758Z,11.13
2022-08-24T22:48:53.941Z,12.55
2022-08-24T22:51:59.698Z,12.55
2022-08-24T22:55:04.927Z,11.48
2022-08-24T22:58:10.060Z,11.93
2022-08-24T23:01:23.677Z,12.23
2022-08-24T23:04:30.761Z,12.07
2022-08-24T23:07:36.152Z,11.20
2022-08-24T23:10:41.337Z,11.90
2022-08-24T23:13:46.640Z,12.00
2022-08-24T23:16:54.906Z,13.13
2022-08-24T23:20:06.614Z,13.65
2022-08-24T23:23:11.695Z,14.20
2022-08-24T23:26:18.231Z,13.32
2022-08-24T23:29:23.703Z,13.13
2022-08-24T23:32:31.739Z,13.15
2022-08-24T23:35:36.894Z,12.40
2022-08-24T23:38:41.954Z,13.23
2022-08-24T23:41:48.541Z,12.82
2022-08-24T23:44:53.658Z,11.63
2022-08-24T23:48:02.453Z,13.80
2022-08-24T23:51:08.903Z,12.27
2022-08-24T23:54:14.230Z,12.60
2022-08-24T23:57:19.462Z,14.65
